Time;durP1;ratioP1;P1;durP2;ratioP2;P2;SDS_P1;SDS_P2;PMS_P1;PMS_P2;Temp;Humidity;BMP_temperature;BMP_pressure;BME280_temperature;BME280_humidity;BME280_pressure;Samples;Min_cycle;Max_cycle;Signal;HPM_P1;HPM_P2
2021/12/02 00:00:14;;;;;;;3.28;1.27;;;15.30;62.40;;;;;;5053567;28;20476;-72
2021/12/02 00:02:41;;;;;;;1.70;0.95;;;15.50;62.30;;;;;;5053650;28;20062;-72
2021/12/02 00:05:09;;;;;;;1.85;0.90;;;15.70;57.40;;;;;;5053847;28;20142;-72
2021/12/02 00:07:36;;;;;;;2.50;1.02;;;;;;;;;;5053666;28;20076;-73
2021/12/02 00:10:05;;;;;;;2.40;1.20;;;15.70;62.70;;;;;;5053960;28;20135;-72
2021/12/02 00:12:32;;;;;;;2.40;0.80;;;15.50;63.40;;;;;;5053719;28;20136;-72
2021/12/02 00:15:04;;;;;;;2.67;0.90;;;15.70;57.50;;;;;;5053277;28;20056;-72
2021/12/02 00:17:36;;;;;;;3.25;1.10;;;15.80;62.70;;;;;;5053259;28;20408;-72
2021/12/02 00:23:11;;;;;;;3.90;1.17;;;16.20;62.90;;;;;;5053749;28;20057;-72
2021/12/02 00:25:38;;;;;;;1.58;0.93;;;15.60;62.80;;;;;;5053629;28;20143;-72
2021/12/02 00:28:05;;;;;;;1.95;1.02;;;15.60;62.50;;;;;;5051362;28;20127;-72
2021/12/02 00:30:31;;;;;;;3.70;0.93;;;15.40;62.60;;;;;;5053063;28;20135;-72
2021/12/02 00:32:58;;;;;;;2.65;1.10;;;15.60;62.80;;;;;;5053590;28;20136;-72
2021/12/02 00:35:25;;;;;;;2.17;1.00;;;16.30;63.00;;;;;;5071159;28;20071;-72
2021/12/02 00:37:53;;;;;;;1.95;0.95;;;14.70;62.20;;;;;;5053156;28;20434;-72
2021/12/02 00:40:20;;;;;;;2.15;0.95;;;15.20;62.30;;;;;;5053526;28;20091;-72
2021/12/02 00:42:47;;;;;;;2.17;1.00;;;15.40;57.60;;;;;;5052977;28;20131;-72
2021/12/02 00:45:13;;;;;;;2.00;1.00;;;15.40;57.60;;;;;;5071066;28;20119;-72
2021/12/02 00:47:40;;;;;;;3.45;1.10;;;14.80;62.30;;;;;;5053266;28;20053;-72
2021/12/02 00:50:07;;;;;;;2.17;0.95;;;15.40;57.70;;;;;;5053274;28;20059;-72
2021/12/02 00:52:34;;;;;;;1.90;0.90;;;15.40;63.00;;;;;;5053477;28;20099;-72
2021/12/02 00:55:03;;;;;;;1.95;1.00;;;15.40;64.30;;;;;;5054529;28;20132;-72
2021/12/02 00:57:30;;;;;;;1.85;0.90;;;15.30;62.80;;;;;;5074360;28;20048;-72
2021/12/02 00:59:56;;;;;;;1.15;0.80;;;15.30;63.00;;;;;;5057183;28;20136;-72
2021/12/02 01:02:23;;;;;;;2.08;0.80;;;15.30;62.90;;;;;;5057138;28;20080;-72
2021/12/02 01:04:50;;;;;;;1.85;1.00;;;15.20;58.80;;;;;;5056595;28;20167;-72
2021/12/02 01:07:17;;;;;;;2.65;0.90;;;15.40;62.90;;;;;;5056912;28;20383;-72
2021/12/02 01:09:43;;;;;;;3.00;1.13;;;15.20;63.10;;;;;;5057064;28;20143;-72
2021/12/02 01:12:12;;;;;;;1.35;0.80;;;15.30;63.20;;;;;;5056669;28;20128;-72
2021/12/02 01:14:38;;;;;;;2.05;0.90;;;15.30;63.00;;;;;;5056745;28;20059;-72
2021/12/02 01:17:05;;;;;;;3.58;1.02;;;15.30;63.10;;;;;;5056063;28;20058;-72
2021/12/02 01:19:32;;;;;;;2.47;0.95;;;;;;;;;;5056701;28;20147;-73
2021/12/02 01:21:59;;;;;;;2.13;1.10;;;15.00;62.80;;;;;;5056849;28;20476;-72
2021/12/02 01:24:25;;;;;;;2.03;0.93;;;15.20;63.20;;;;;;5056086;28;20135;-72
2021/12/02 01:26:53;;;;;;;1.60;1.00;;;15.00;63.10;;;;;;5056470;28;20049;-72
2021/12/02 01:29:23;;;;;;;2.97;1.08;;;15.20;63.20;;;;;;5056005;28;20057;-72
2021/12/02 01:31:52;;;;;;;2.97;1.00;;;14.90;62.80;;;;;;5073319;28;20059;-73
2021/12/02 01:34:22;;;;;;;2.30;0.90;;;15.20;63.00;;;;;;5056310;28;20459;-72
2021/12/02 01:36:49;;;;;;;1.25;0.80;;;15.20;63.40;;;;;;5056452;28;20139;-72
2021/12/02 01:39:15;;;;;;;2.53;1.10;;;15.20;63.00;;;;;;5056266;28;20135;-72
2021/12/02 01:41:45;;;;;;;2.00;1.02;;;15.20;63.20;;;;;;5056206;28;20063;-72
2021/12/02 01:44:15;;;;;;;3.25;1.27;;;15.50;63.20;;;;;;5055643;28;20151;-72
2021/12/02 01:46:43;;;;;;;3.25;1.00;;;14.60;62.80;;;;;;5056340;28;20572;-72
2021/12/02 01:49:11;;;;;;;4.25;1.30;;;14.60;63.00;;;;;;5056070;28;20052;-72
2021/12/02 01:51:40;;;;;;;2.22;0.95;;;15.00;63.20;;;;;;5056087;28;20412;-72
2021/12/02 01:54:07;;;;;;;2.15;0.90;;;15.10;62.90;;;;;;5055726;28;20064;-72
2021/12/02 01:56:40;;;;;;;1.98;1.15;;;15.10;63.30;;;;;;5073603;28;20048;-72
2021/12/02 01:59:10;;;;;;;1.85;0.82;;;15.00;57.30;;;;;;5055914;28;20135;-73
2021/12/02 02:01:37;;;;;;;2.05;1.20;;;14.80;63.10;;;;;;5056145;28;20617;-72
2021/12/02 02:04:06;;;;;;;2.03;1.02;;;14.80;63.10;;;;;;5055613;28;20140;-72
2021/12/02 02:06:36;;;;;;;1.75;0.85;;;15.00;63.20;;;;;;5055488;28;20052;-71
2021/12/02 02:09:03;;;;;;;2.08;0.90;;;14.80;63.10;;;;;;5055501;28;20076;-72
2021/12/02 02:11:30;;;;;;;2.70;0.73;;;14.70;62.80;;;;;;5055680;28;20049;-71
2021/12/02 02:13:58;;;;;;;2.72;1.05;;;14.90;57.20;;;;;;5055476;28;20135;-73
2021/12/02 02:16:25;;;;;;;2.45;1.08;;;14.90;63.10;;;;;;5054684;28;20501;-71
2021/12/02 02:18:51;;;;;;;1.65;0.80;;;14.90;63.00;;;;;;5055160;28;20059;-72
2021/12/02 02:21:23;;;;;;;1.65;0.90;;;14.90;63.20;;;;;;5055540;28;20557;-72
2021/12/02 02:23:51;;;;;;;2.40;1.00;;;14.90;63.10;;;;;;5054986;28;20063;-73
2021/12/02 02:26:22;;;;;;;1.33;0.90;;;14.90;63.30;;;;;;5055386;28;20428;-72
2021/12/02 02:28:50;;;;;;;2.67;0.90;;;;;;;;;;5055536;28;20132;-73
2021/12/02 02:31:16;;;;;;;1.38;0.70;;;14.90;63.30;;;;;;5055087;28;20063;-72
2021/12/02 02:33:48;;;;;;;2.22;0.98;;;14.90;63.00;;;;;;5055007;28;20056;-71
2021/12/02 02:36:14;;;;;;;1.42;0.90;;;14.90;63.00;;;;;;5055426;28;20108;-72
2021/12/02 02:38:45;;;;;;;2.95;1.00;;;14.80;63.20;;;;;;5054652;28;20131;-72
2021/12/02 02:41:14;;;;;;;3.22;1.10;;;14.60;62.80;;;;;;5055067;28;20056;-72
2021/12/02 02:43:42;;;;;;;3.00;1.33;;;14.90;63.40;;;;;;5072722;28;20056;-72
2021/12/02 02:46:08;;;;;;;1.23;0.80;;;14.80;63.30;;;;;;5054768;28;20059;-72
2021/12/02 02:48:35;;;;;;;1.63;0.88;;;14.80;63.30;;;;;;5055137;28;20124;-72
2021/12/02 02:51:02;;;;;;;2.20;0.75;;;14.60;63.10;;;;;;5054485;28;20139;-74
2021/12/02 02:53:28;;;;;;;2.03;0.82;;;14.60;63.10;;;;;;5054487;28;20477;-72
2021/12/02 02:56:05;;;;;;;1.73;1.00;;;14.80;63.10;;;;;;5055045;28;20083;-72
2021/12/02 02:58:42;;;;;;;2.33;0.88;;;14.60;63.10;;;;;;5054691;28;20048;-72
2021/12/02 03:01:23;;;;;;;2.97;1.00;;;14.70;63.00;;;;;;5054576;28;20569;-72
2021/12/02 03:03:58;;;;;;;2.42;1.38;;;14.70;63.10;;;;;;5054843;28;20068;-72
2021/12/02 03:06:32;;;;;;;1.80;0.90;;;14.70;63.10;;;;;;5054830;28;20068;-72
2021/12/02 03:09:02;;;;;;;3.47;0.95;;;14.70;63.10;;;;;;5054340;28;20098;-71
2021/12/02 03:11:39;;;;;;;0.98;0.70;;;14.70;63.10;;;;;;5054564;28;20144;-72
2021/12/02 03:14:10;;;;;;;1.42;0.75;;;14.60;63.40;;;;;;5053992;28;20110;-72
2021/12/02 03:16:43;;;;;;;2.70;1.00;;;14.70;62.00;;;;;;5053319;28;20052;-72
2021/12/02 03:19:10;;;;;;;2.05;1.00;;;14.70;63.30;;;;;;5053198;28;20110;-72
2021/12/02 03:21:37;;;;;;;1.80;0.90;;;14.50;63.10;;;;;;5053836;28;20059;-72
2021/12/02 03:24:04;;;;;;;1.02;0.70;;;14.50;63.10;;;;;;5054377;28;20552;-72
2021/12/02 03:26:32;;;;;;;1.85;0.80;;;14.70;63.10;;;;;;5054177;28;20128;-72
2021/12/02 03:28:59;;;;;;;1.52;0.85;;;14.90;59.70;;;;;;5054205;28;20044;-72
2021/12/02 03:31:26;;;;;;;1.60;0.70;;;14.60;63.30;;;;;;5070849;28;20088;-72
2021/12/02 03:33:53;;;;;;;2.30;0.82;;;;;;;;;;5071848;28;20052;-73
2021/12/02 03:36:20;;;;;;;2.17;0.80;;;14.70;63.30;;;;;;5054119;28;20508;-72
2021/12/02 03:38:47;;;;;;;1.33;0.82;;;14.60;63.00;;;;;;5053791;28;20044;-73
2021/12/02 03:41:14;;;;;;;1.17;0.90;;;14.30;62.80;;;;;;5054165;28;20219;-72
2021/12/02 03:43:43;;;;;;;1.48;0.82;;;14.60;57.20;;;;;;5053751;28;20144;-73
2021/12/02 03:46:11;;;;;;;1.90;0.82;;;14.50;63.00;;;;;;5053901;28;20490;-72
2021/12/02 03:48:38;;;;;;;1.23;0.70;;;14.50;63.40;;;;;;5054097;28;20052;-72
2021/12/02 03:51:05;;;;;;;1.13;0.80;;;14.60;63.20;;;;;;5053755;28;20064;-73
2021/12/02 03:53:32;;;;;;;1.90;0.80;;;14.60;63.20;;;;;;5053500;28;20139;-72
2021/12/02 03:56:00;;;;;;;1.05;0.80;;;14.60;63.10;;;;;;5054037;28;20489;-72
2021/12/02 03:58:27;;;;;;;2.42;1.02;;;14.80;63.40;;;;;;5053477;28;20055;-72
2021/12/02 04:00:55;;;;;;;1.13;0.70;;;14.50;61.40;;;;;;5054012;28;20060;-72
2021/12/02 04:03:22;;;;;;;2.00;0.70;;;14.10;63.10;;;;;;5053604;28;20163;-72
2021/12/02 04:05:49;;;;;;;1.67;0.80;;;14.60;63.30;;;;;;5053764;28;20136;-71
2021/12/02 04:08:16;;;;;;;0.93;0.75;;;14.60;63.30;;;;;;5071365;28;20055;-73
2021/12/02 04:10:44;;;;;;;1.77;0.80;;;14.60;63.40;;;;;;5053363;28;20106;-71
2021/12/02 04:13:16;;;;;;;1.60;0.82;;;14.60;63.40;;;;;;5053292;28;20060;-72
2021/12/02 04:15:49;;;;;;;1.58;0.75;;;14.60;63.30;;;;;;5053955;28;20139;-72
2021/12/02 04:18:17;;;;;;;1.25;0.70;;;14.50;57.00;;;;;;5053587;28;20053;-73
2021/12/02 04:20:44;;;;;;;1.52;0.80;;;14.60;63.30;;;;;;5053723;28;20091;-72
2021/12/02 04:23:11;;;;;;;2.67;0.90;;;14.60;63.10;;;;;;5053564;28;20142;-71
2021/12/02 04:25:38;;;;;;;0.95;0.75;;;14.60;63.20;;;;;;5053595;28;20147;-72
2021/12/02 04:28:04;;;;;;;0.80;0.55;;;14.70;60.10;;;;;;5053727;28;20411;-72
2021/12/02 04:30:31;;;;;;;2.22;1.00;;;14.40;62.80;;;;;;5055846;28;20079;-71
2021/12/02 04:32:58;;;;;;;1.67;0.80;;;14.10;62.70;;;;;;5057255;28;20219;-72
2021/12/02 04:35:26;;;;;;;1.13;0.60;;;14.60;63.00;;;;;;5057531;28;20064;-72
2021/12/02 04:37:53;;;;;;;3.05;0.68;;;14.60;63.00;;;;;;5057438;28;20453;-72
2021/12/02 04:40:21;;;;;;;1.98;0.70;;;14.60;63.20;;;;;;5057285;28;20139;-72
2021/12/02 04:42:47;;;;;;;0.70;0.52;;;14.60;63.20;;;;;;5056970;28;20048;-72
2021/12/02 04:45:14;;;;;;;1.10;0.70;;;14.80;63.30;;;;;;5057159;28;20132;-72
2021/12/02 04:47:41;;;;;;;1.50;0.70;;;14.70;63.00;;;;;;5057243;28;20465;-72
2021/12/02 04:50:08;;;;;;;0.95;0.70;;;14.70;63.00;;;;;;5057176;28;20087;-71
2021/12/02 04:52:37;;;;;;;1.15;0.70;;;14.20;61.50;;;;;;5056926;28;20058;-72
2021/12/02 04:55:04;;;;;;;0.80;0.70;;;14.70;62.80;;;;;;5056854;28;20131;-72
2021/12/02 04:57:30;;;;;;;1.73;0.80;;;14.60;62.80;;;;;;5074367;28;20076;-72
2021/12/02 04:59:57;;;;;;;1.38;0.65;;;14.60;62.80;;;;;;5074544;28;20071;-71
2021/12/02 05:02:24;;;;;;;0.88;0.65;;;14.70;63.00;;;;;;5057180;28;20135;-71
2021/12/02 05:04:51;;;;;;;1.70;0.82;;;14.70;63.00;;;;;;5056376;28;20139;-71
2021/12/02 05:07:17;;;;;;;1.45;0.63;;;14.70;63.10;;;;;;5056368;28;20533;-72
2021/12/02 05:09:45;;;;;;;1.33;0.80;;;14.80;62.80;;;;;;5056680;28;20132;-71
2021/12/02 05:12:12;;;;;;;1.60;0.80;;;14.80;62.70;;;;;;5056569;28;20136;-71
2021/12/02 05:14:39;;;;;;;0.80;0.60;;;14.80;62.90;;;;;;5056297;28;20540;-72
2021/12/02 05:17:05;;;;;;;0.68;0.60;;;14.80;62.70;;;;;;5056624;28;20131;-72
2021/12/02 05:19:32;;;;;;;0.85;0.60;;;14.80;62.90;;;;;;5056366;28;20094;-72
2021/12/02 05:21:59;;;;;;;2.20;0.60;;;14.80;62.80;;;;;;5074416;28;20117;-71
2021/12/02 05:24:26;;;;;;;1.40;0.80;;;14.60;62.40;;;;;;5056393;28;20114;-72
2021/12/02 05:26:54;;;;;;;1.88;0.70;;;15.00;62.80;;;;;;5056578;28;20118;-72
2021/12/02 05:29:20;;;;;;;1.20;0.65;;;14.90;62.70;;;;;;5054713;28;20045;-72
2021/12/02 05:31:47;;;;;;;0.85;0.75;;;14.60;62.60;;;;;;5056035;28;20114;-72
2021/12/02 05:34:14;;;;;;;0.90;0.60;;;14.90;57.10;;;;;;5056239;28;20056;-71
2021/12/02 05:36:40;;;;;;;1.55;0.57;;;15.00;62.50;;;;;;5056312;28;20071;-72
2021/12/02 05:39:07;;;;;;;1.25;0.70;;;15.00;62.40;;;;;;5055793;28;20059;-71
2021/12/02 05:41:34;;;;;;;0.70;0.60;;;14.90;59.20;;;;;;5055279;28;20549;-72
2021/12/02 05:44:02;;;;;;;0.65;0.65;;;14.70;62.10;;;;;;5056076;28;20139;-72
2021/12/02 05:46:29;;;;;;;1.58;0.77;;;15.00;62.60;;;;;;5072806;28;20048;-72
2021/12/02 05:48:55;;;;;;;0.98;0.60;;;15.00;62.50;;;;;;5055595;28;20055;-72
2021/12/02 05:51:22;;;;;;;0.80;0.60;;;15.10;62.70;;;;;;5056105;28;20133;-71
2021/12/02 05:53:49;;;;;;;0.82;0.60;;;15.10;62.60;;;;;;5055623;28;20091;-72
2021/12/02 05:56:16;;;;;;;0.70;0.60;;;15.10;62.40;;;;;;5055781;28;20621;-71
2021/12/02 05:58:42;;;;;;;0.65;0.57;;;14.50;62.20;;;;;;5073445;28;20110;-72
2021/12/02 06:01:11;;;;;;;1.23;0.70;;;15.10;62.30;;;;;;5055972;28;20497;-72
2021/12/02 06:03:38;;;;;;;0.73;0.60;;;15.00;62.40;;;;;;5055486;28;20131;-72
2021/12/02 06:06:05;;;;;;;0.70;0.60;;;15.00;62.40;;;;;;5055529;28;20061;-72
2021/12/02 06:08:32;;;;;;;1.10;0.65;;;14.90;62.10;;;;;;5055288;28;20048;-71
2021/12/02 06:10:59;;;;;;;0.98;0.50;;;15.20;62.20;;;;;;5055562;28;20185;-72
2021/12/02 06:13:26;;;;;;;0.63;0.60;;;15.10;62.30;;;;;;5055285;28;20513;-72
2021/12/02 06:15:53;;;;;;;0.40;0.38;;;15.10;57.40;;;;;;5055688;28;20056;-72
2021/12/02 06:18:21;;;;;;;0.30;0.30;;;15.10;62.20;;;;;;5072151;28;20128;-72
2021/12/02 06:20:53;;;;;;;0.60;0.60;;;14.50;61.80;;;;;;5054980;28;20131;-71
2021/12/02 06:23:20;;;;;;;0.60;0.50;;;15.00;62.10;;;;;;5055067;28;20056;-72
2021/12/02 06:25:49;;;;;;;0.98;0.50;;;15.10;62.20;;;;;;5055528;28;20158;-72
2021/12/02 06:28:16;;;;;;;1.00;0.45;;;15.10;62.20;;;;;;5055330;28;20049;-72
2021/12/02 06:30:43;;;;;;;1.08;0.50;;;;;;;;;;5055010;28;20135;-73
2021/12/02 06:33:10;;;;;;;1.38;0.60;;;15.20;62.00;;;;;;5054783;28;20127;-72
2021/12/02 06:35:40;;;;;;;0.82;0.40;;;15.10;56.10;;;;;;5055359;28;20167;-73
2021/12/02 06:38:06;;;;;;;1.33;0.60;;;15.10;62.30;;;;;;5054981;28;20064;-71
2021/12/02 06:40:34;;;;;;;0.55;0.40;;;15.10;62.10;;;;;;5054679;28;20147;-73
2021/12/02 06:43:01;;;;;;;0.52;0.50;;;;;;;;;;5054871;28;20080;-73
2021/12/02 06:45:28;;;;;;;1.02;0.60;;;14.50;61.50;;;;;;5055021;28;20131;-71
2021/12/02 06:47:59;;;;;;;0.50;0.50;;;14.90;61.90;;;;;;5055041;28;20056;-72
2021/12/02 06:50:26;;;;;;;0.52;0.43;;;15.10;62.00;;;;;;5054637;28;20425;-73
2021/12/02 06:52:54;;;;;;;0.60;0.60;;;14.70;61.60;;;;;;5053920;28;20127;-72
2021/12/02 06:55:21;;;;;;;1.10;0.60;;;14.90;61.80;;;;;;5054838;28;20132;-71
2021/12/02 06:57:50;;;;;;;0.90;0.50;;;15.20;62.20;;;;;;5054651;28;20092;-72
2021/12/02 07:00:18;;;;;;;0.80;0.50;;;15.10;62.00;;;;;;5054474;28;20048;-72
2021/12/02 07:02:44;;;;;;;0.65;0.50;;;15.10;62.10;;;;;;5071108;28;20080;-72
2021/12/02 07:05:12;;;;;;;0.35;0.35;;;15.20;62.10;;;;;;5054259;28;20086;-72
2021/12/02 07:07:39;;;;;;;0.40;0.40;;;15.00;61.90;;;;;;5054323;28;20127;-72
2021/12/02 07:10:08;;;;;;;0.90;0.40;;;15.10;61.70;;;;;;5054646;28;20056;-72
2021/12/02 07:12:36;;;;;;;0.50;0.50;;;15.10;61.90;;;;;;5054441;28;20652;-72
2021/12/02 07:15:08;;;;;;;0.45;0.45;;;15.10;55.80;;;;;;5053900;28;20484;-72
2021/12/02 07:17:34;;;;;;;0.50;0.50;;;15.00;61.70;;;;;;5054527;28;20451;-72
2021/12/02 07:20:01;;;;;;;1.17;0.60;;;14.90;61.70;;;;;;5054222;28;20123;-72
2021/12/02 07:22:28;;;;;;;0.80;0.50;;;15.30;61.80;;;;;;5053765;28;20048;-73
2021/12/02 07:24:55;;;;;;;0.63;0.60;;;15.20;61.60;;;;;;5054131;28;20465;-72
2021/12/02 07:27:23;;;;;;;1.05;0.60;;;15.20;61.70;;;;;;5071958;28;20131;-72
2021/12/02 07:29:49;;;;;;;0.65;0.50;;;15.20;61.70;;;;;;5054053;28;20132;-71
2021/12/02 07:32:16;;;;;;;0.50;0.50;;;15.20;61.80;;;;;;5054112;28;20557;-72
2021/12/02 07:34:44;;;;;;;0.60;0.50;;;14.60;61.40;;;;;;5053877;28;20139;-74
2021/12/02 07:37:12;;;;;;;0.35;0.35;;;15.30;61.00;;;;;;5053664;28;20070;-74
2021/12/02 07:39:38;;;;;;;0.50;0.50;;;15.50;61.90;;;;;;5053487;28;20131;-74
2021/12/02 07:42:05;;;;;;;0.60;0.60;;;15.20;61.70;;;;;;5053851;28;20087;-73
2021/12/02 07:44:34;;;;;;;1.23;0.80;;;15.10;61.40;;;;;;5071468;28;20408;-73
2021/12/02 07:47:01;;;;;;;1.65;0.57;;;15.00;61.60;;;;;;5070686;28;20087;-74
2021/12/02 07:49:28;;;;;;;3.25;0.85;;;15.10;61.50;;;;;;5054017;28;20551;-74
2021/12/02 07:51:56;;;;;;;3.20;1.15;;;15.10;61.80;;;;;;5053680;28;20066;-74
2021/12/02 07:54:23;;;;;;;7.40;1.50;;;15.60;62.50;;;;;;5070472;28;20147;-74
2021/12/02 07:56:50;;;;;;;7.88;1.58;;;15.20;63.00;;;;;;5053647;28;20533;-73
2021/12/02 07:59:17;;;;;;;8.10;1.60;;;14.90;63.40;;;;;;5053693;28;20048;-74
2021/12/02 08:01:45;;;;;;;10.18;1.75;;;15.30;64.30;;;;;;5053875;28;20133;-74
2021/12/02 08:04:12;;;;;;;5.57;1.63;;;15.00;64.30;;;;;;5053138;28;20143;-72
2021/12/02 08:06:39;;;;;;;7.57;2.03;;;15.30;64.40;;;;;;5053485;28;20123;-73
2021/12/02 08:09:06;;;;;;;6.43;1.30;;;;;;;;;;5053711;28;20048;-74
2021/12/02 08:11:33;;;;;;;7.90;1.38;;;14.90;63.80;;;;;;5053442;28;20131;-73
2021/12/02 08:14:00;;;;;;;5.47;1.38;;;14.80;60.20;;;;;;5053047;28;20140;-74
2021/12/02 08:16:26;;;;;;;5.28;1.17;;;15.30;64.10;;;;;;5052651;28;20531;-73
2021/12/02 08:18:54;;;;;;;4.47;1.38;;;15.40;64.20;;;;;;5052581;28;20492;-73
2021/12/02 08:21:21;;;;;;;6.43;1.38;;;15.30;63.90;;;;;;5052932;28;20561;-74
2021/12/02 08:23:48;;;;;;;3.20;1.10;;;15.40;64.00;;;;;;5053060;28;20083;-74
2021/12/02 08:26:16;;;;;;;4.18;1.05;;;15.30;63.80;;;;;;5050754;28;20131;-73
2021/12/02 08:28:43;;;;;;;4.05;1.20;;;15.60;63.70;;;;;;5052605;28;20064;-73
2021/12/02 08:31:09;;;;;;;3.58;1.00;;;16.00;64.10;;;;;;5053400;28;20487;-74
2021/12/02 08:33:36;;;;;;;6.15;1.52;;;15.40;63.70;;;;;;5053440;28;20083;-74
2021/12/02 08:36:05;;;;;;;3.88;1.10;;;15.30;63.40;;;;;;5053441;28;20044;-73
2021/12/02 08:38:33;;;;;;;4.20;1.02;;;15.90;63.60;;;;;;5053382;28;20048;-73
2021/12/02 08:41:00;;;;;;;3.58;1.60;;;15.50;63.50;;;;;;5053145;28;20456;-74
2021/12/02 08:43:26;;;;;;;3.22;1.00;;;15.30;61.80;;;;;;5053152;28;20412;-74
2021/12/02 08:45:53;;;;;;;3.03;1.20;;;15.90;63.40;;;;;;5053410;28;20159;-74
2021/12/02 08:48:20;;;;;;;3.58;1.10;;;15.40;63.50;;;;;;5053487;28;20052;-73
2021/12/02 08:50:47;;;;;;;2.92;1.02;;;15.40;63.20;;;;;;5053446;28;20155;-74
2021/12/02 08:53:15;;;;;;;3.25;1.10;;;14.90;62.60;;;;;;5053348;28;20217;-73
2021/12/02 08:55:43;;;;;;;2.97;1.08;;;15.50;62.80;;;;;;5052762;28;20079;-73
2021/12/02 08:58:10;;;;;;;2.10;1.23;;;15.50;63.10;;;;;;5053036;28;20062;-74
2021/12/02 09:00:39;;;;;;;2.30;0.90;;;15.50;63.00;;;;;;5052806;28;20052;-74
2021/12/02 09:03:07;;;;;;;1.92;0.80;;;15.60;62.80;;;;;;5053280;28;20177;-73
2021/12/02 09:05:34;;;;;;;1.95;0.90;;;15.40;62.90;;;;;;5053360;28;20135;-73
2021/12/02 09:08:01;;;;;;;3.45;1.08;;;14.90;62.40;;;;;;5052099;28;20468;-74
2021/12/02 09:10:29;;;;;;;1.60;0.80;;;15.60;62.80;;;;;;5053243;28;20131;-74
2021/12/02 09:12:56;;;;;;;2.78;0.90;;;14.80;62.50;;;;;;5052980;28;20135;-73
2021/12/02 09:15:23;;;;;;;2.10;0.80;;;15.50;62.60;;;;;;5053257;28;20091;-72
2021/12/02 09:17:50;;;;;;;1.38;1.00;;;15.50;62.70;;;;;;5055492;28;20048;-75
2021/12/02 09:20:17;;;;;;;0.82;0.70;;;15.00;62.60;;;;;;5056602;28;20477;-75
2021/12/02 09:22:44;;;;;;;2.38;1.08;;;15.40;62.60;;;;;;5056145;28;20087;-72
2021/12/02 09:25:11;;;;;;;1.70;0.80;;;15.50;59.30;;;;;;5055934;28;20052;-72
2021/12/02 09:27:39;;;;;;;1.05;0.80;;;15.60;63.00;;;;;;5055791;28;20121;-73
2021/12/02 09:30:07;;;;;;;2.33;0.90;;;15.50;62.60;;;;;;5056442;28;20127;-73
2021/12/02 09:32:34;;;;;;;2.08;0.80;;;15.10;62.60;;;;;;5056452;28;20143;-73
2021/12/02 09:35:01;;;;;;;2.53;0.80;;;16.30;63.20;;;;;;5056227;28;20412;-73
2021/12/02 09:37:27;;;;;;;3.70;1.00;;;15.50;62.40;;;;;;5056363;28;20066;-73
2021/12/02 09:39:54;;;;;;;2.97;0.90;;;15.50;62.70;;;;;;5056137;28;20044;-73
2021/12/02 09:42:21;;;;;;;1.50;0.80;;;15.50;62.40;;;;;;5056352;28;20226;-73
2021/12/02 09:44:54;;;;;;;1.83;0.82;;;15.60;62.50;;;;;;5055764;28;20060;-73
2021/12/02 09:47:21;;;;;;;1.25;0.90;;;;;;;;;;5056393;28;20081;-73
2021/12/02 09:49:48;;;;;;;1.77;1.17;;;15.50;62.60;;;;;;5056259;28;20443;-73
2021/12/02 09:52:16;;;;;;;1.00;0.80;;;15.70;62.60;;;;;;5056036;28;20440;-73
2021/12/02 09:54:47;;;;;;;1.42;0.80;;;15.60;62.60;;;;;;5055888;28;20060;-73
2021/12/02 09:57:17;;;;;;;1.08;0.77;;;15.70;62.80;;;;;;5056073;28;20059;-73
2021/12/02 09:59:50;;;;;;;1.15;0.73;;;15.70;62.40;;;;;;5055941;28;20048;-73
2021/12/02 10:02:20;;;;;;;2.35;0.98;;;15.60;62.70;;;;;;5055690;28;20048;-75
2021/12/02 10:04:51;;;;;;;1.60;0.93;;;15.40;62.10;;;;;;5055389;28;20048;-75
2021/12/02 10:07:22;;;;;;;1.15;0.88;;;15.50;62.20;;;;;;5054712;28;20063;-75
2021/12/02 10:09:57;;;;;;;1.77;0.70;;;15.70;62.30;;;;;;5054963;28;20041;-74
2021/12/02 10:12:24;;;;;;;0.90;0.60;;;15.60;62.60;;;;;;5052814;28;20049;-75
2021/12/02 10:14:52;;;;;;;1.10;0.80;;;15.60;62.60;;;;;;5055160;28;20114;-74
2021/12/02 10:17:24;;;;;;;1.15;0.80;;;15.00;62.10;;;;;;5052193;28;20140;-74
2021/12/02 10:20:10;;;;;;;1.58;0.85;;;15.70;62.30;;;;;;5071924;28;20166;-74
2021/12/02 10:22:37;;;;;;;1.00;0.75;;;14.80;62.20;;;;;;5054431;28;20059;-74
2021/12/02 10:25:07;;;;;;;0.68;0.65;;;15.10;62.00;;;;;;5054970;28;20062;-74
2021/12/02 10:27:37;;;;;;;1.50;0.70;;;15.80;62.40;;;;;;5053951;28;20351;-75
2021/12/02 10:30:22;;;;;;;1.38;0.80;;;15.90;62.70;;;;;;5055114;28;20083;-75
2021/12/02 10:32:51;;;;;;;1.27;0.80;;;15.70;56.50;;;;;;5053862;28;20778;-75
2021/12/02 10:35:21;;;;;;;1.15;0.70;;;15.80;62.50;;;;;;5052140;28;20076;-76
2021/12/02 10:37:48;;;;;;;0.75;0.70;;;15.70;62.30;;;;;;5055018;28;20052;-75
2021/12/02 10:40:16;;;;;;;1.35;0.77;;;15.70;62.30;;;;;;5054596;28;20133;-75
2021/12/02 10:42:43;;;;;;;0.77;0.63;;;15.80;62.50;;;;;;5070949;28;20072;-75
2021/12/02 10:45:19;;;;;;;1.70;0.68;;;16.00;62.70;;;;;;5054735;28;20123;-75
2021/12/02 10:47:48;;;;;;;1.40;0.82;;;15.70;62.60;;;;;;5069845;28;20076;-75
2021/12/02 10:50:16;;;;;;;0.52;0.52;;;15.90;56.50;;;;;;5054698;28;20432;-75
2021/12/02 10:52:43;;;;;;;1.67;0.70;;;15.70;60.50;;;;;;5054413;28;20079;-75
2021/12/02 10:55:11;;;;;;;1.17;0.80;;;15.90;62.50;;;;;;5054672;28;20053;-75
2021/12/02 10:57:39;;;;;;;1.63;0.70;;;15.80;62.70;;;;;;5051281;28;20135;-74
2021/12/02 11:00:07;;;;;;;0.98;0.65;;;15.30;62.10;;;;;;5054303;28;20135;-75
2021/12/02 11:02:35;;;;;;;0.77;0.70;;;15.00;62.10;;;;;;5054326;28;20140;-75
2021/12/02 11:05:06;;;;;;;0.60;0.60;;;15.40;62.20;;;;;;5054305;28;20134;-75
2021/12/02 11:07:35;;;;;;;1.95;0.88;;;15.70;62.40;;;;;;5068724;28;20558;-75
2021/12/02 11:10:03;;;;;;;0.60;0.60;;;15.70;62.40;;;;;;5054037;28;20048;-75
2021/12/02 11:12:31;;;;;;;1.00;0.80;;;15.90;62.40;;;;;;5054127;28;20144;-73
2021/12/02 11:15:09;;;;;;;0.60;0.60;;;15.90;62.30;;;;;;5053466;28;20139;-72
2021/12/02 11:17:39;;;;;;;1.08;0.60;;;15.60;62.10;;;;;;5054199;28;20098;-72
2021/12/02 11:20:08;;;;;;;2.75;0.95;;;15.80;62.30;;;;;;5054589;28;20128;-72
2021/12/02 11:22:36;;;;;;;1.13;0.68;;;16.00;62.20;;;;;;5054267;28;20159;-72
2021/12/02 11:25:04;;;;;;;0.60;0.60;;;15.80;62.20;;;;;;5053854;28;20135;-73
2021/12/02 11:27:34;;;;;;;1.27;0.80;;;15.80;62.20;;;;;;5052904;28;20063;-73
2021/12/02 11:30:04;;;;;;;1.92;0.80;;;15.80;62.30;;;;;;5054331;28;20135;-73
2021/12/02 11:32:37;;;;;;;2.83;0.60;;;15.90;62.20;;;;;;5053804;28;20139;-73
2021/12/02 11:35:06;;;;;;;2.40;0.73;;;15.90;62.30;;;;;;5052102;28;20688;-73
2021/12/02 11:37:33;;;;;;;1.83;0.80;;;15.80;62.20;;;;;;5053932;28;20131;-73
2021/12/02 11:40:03;;;;;;;0.60;0.60;;;15.80;56.20;;;;;;5052868;28;20471;-73
2021/12/02 11:42:30;;;;;;;1.13;0.80;;;16.60;62.60;;;;;;5053532;28;20059;-73
2021/12/02 11:44:57;;;;;;;0.68;0.60;;;16.50;62.60;;;;;;5053065;28;20129;-73
2021/12/02 11:47:23;;;;;;;1.38;0.80;;;15.10;61.60;;;;;;5053742;28;20060;-73
2021/12/02 11:49:51;;;;;;;1.50;0.80;;;;;;;;;;5053636;28;20127;-73
2021/12/02 11:52:18;;;;;;;1.00;0.85;;;15.70;62.20;;;;;;5053794;28;20053;-73
2021/12/02 11:54:45;;;;;;;1.73;0.90;;;;;;;;;;5050678;28;20052;-73
2021/12/02 11:57:13;;;;;;;1.13;1.00;;;15.80;62.40;;;;;;5053556;28;20090;-72
2021/12/02 11:59:39;;;;;;;1.70;1.00;;;15.80;62.10;;;;;;5053602;28;20139;-72
2021/12/02 12:02:06;;;;;;;2.00;1.00;;;15.80;62.20;;;;;;5053935;28;20501;-73
2021/12/02 12:04:35;;;;;;;1.15;1.00;;;16.00;62.50;;;;;;5053598;28;20135;-73
2021/12/02 12:07:12;;;;;;;1.75;1.10;;;15.90;62.40;;;;;;5053099;28;20053;-72
2021/12/02 12:09:39;;;;;;;1.83;1.10;;;15.90;62.30;;;;;;5070060;28;20086;-72
2021/12/02 12:12:06;;;;;;;1.23;1.00;;;14.90;61.90;;;;;;5053929;28;20139;-72
2021/12/02 12:14:36;;;;;;;1.80;0.90;;;15.80;62.20;;;;;;5033722;28;20129;-72
2021/12/02 12:17:08;;;;;;;1.20;1.10;;;16.60;62.70;;;;;;5034983;28;20049;-72
2021/12/02 12:19:40;;;;;;;3.28;1.02;;;15.90;62.00;;;;;;5050756;28;20084;-72
2021/12/02 12:22:07;;;;;;;2.03;1.20;;;15.10;61.60;;;;;;5052792;28;20044;-72
2021/12/02 12:24:42;;;;;;;2.33;1.10;;;15.80;62.10;;;;;;5052376;28;20165;-72
2021/12/02 12:27:13;;;;;;;2.42;1.20;;;15.90;62.00;;;;;;5051501;28;20055;-72
2021/12/02 12:29:41;;;;;;;1.38;1.10;;;15.80;62.20;;;;;;5052666;28;20102;-72
2021/12/02 12:32:21;;;;;;;1.13;1.02;;;15.80;61.90;;;;;;5053229;28;20055;-72
2021/12/02 12:34:53;;;;;;;1.50;1.00;;;15.80;62.00;;;;;;5051002;28;20478;-72
2021/12/02 12:37:46;;;;;;;2.00;1.10;;;15.90;62.30;;;;;;5053180;28;20098;-72
2021/12/02 12:40:14;;;;;;;1.25;1.10;;;16.10;62.40;;;;;;5051450;28;20152;-73
2021/12/02 12:42:44;;;;;;;1.90;1.20;;;15.30;62.20;;;;;;5052603;28;20139;-73
2021/12/02 12:45:13;;;;;;;1.13;1.05;;;15.10;61.60;;;;;;5067238;28;20569;-73
2021/12/02 12:47:45;;;;;;;1.52;1.42;;;16.00;62.30;;;;;;5053415;28;20528;-73
2021/12/02 12:50:33;;;;;;;1.95;1.20;;;15.70;61.90;;;;;;5053477;28;20048;-73
2021/12/02 12:53:19;;;;;;;1.27;1.08;;;16.10;62.40;;;;;;5057209;28;20477;-73
2021/12/02 12:56:01;;;;;;;1.30;1.10;;;15.80;62.30;;;;;;5057242;28;20131;-73
2021/12/02 12:58:29;;;;;;;2.05;1.20;;;16.60;62.50;;;;;;5053721;28;20132;-73